Hurley, New Mexico
Current Conditions -  °F | °C
As of 6:55 PM on Wednesday 26 Nov 2014 (Local Time) from KSVC Reporting Station
Clear Clear  
Wind Chill: 45°   Ceiling: Unl
Heat Index: 45°   Visibility: 10mi
Dew Point: 18°   Wind: 3mph
Humidity: 34%   Direction: 60°ENE
Pressure: 30.37"   Gusts: NA
Location:  32.7°N, 108.13°W
Report Text: KSVC 270155Z AUTO 06003KT 10SM CLR 07/M08 A3037 RMK AO2
Loading
Personal Weather Stations






























Interactive Weather Map New forecast layout! Learn more

10-Day Weather Forecast

Advertisements
Track Severe Weather on mobile